Terminal Aerodrome Forecast
Issued by NWS Wilmington, OH

Home | Current Version | Previous Version | Text Only | Print | Product List | Glossary On
Versions: 1 2 3 4 5 6 7 8 9 10 11 12 13 14 15 16 17 18 19 20 21 22 23 24 25 26 27
000
FTUS41 KILN 242118 AAA
TAFCVG
TAF AMD
KCVG 242118Z 2421/2524 03005KT P6SM SCT030
     FM250000 05004KT P6SM FEW030 SCT250
     FM251400 08004KT P6SM FEW035 SCT050=

USA.gov is the U.S. government's official web portal to all federal, state and local government web resources and services.